sensor_id;sensor_type;location;lat;lon;timestamp;P1;durP1;ratioP1;P2;durP2;ratioP2
37609;SDS011;23457;51.966;8.230;2023-02-22T00:01:41;112.43;;;38.22;;
37609;SDS011;23457;51.966;8.230;2023-02-22T00:04:36;113.30;;;37.58;;
37609;SDS011;23457;51.966;8.230;2023-02-22T00:07:05;118.05;;;36.90;;
37609;SDS011;23457;51.966;8.230;2023-02-22T00:09:32;115.03;;;36.72;;
37609;SDS011;23457;51.966;8.230;2023-02-22T00:11:59;116.97;;;36.15;;
37609;SDS011;23457;51.966;8.230;2023-02-22T00:14:26;122.63;;;37.17;;
37609;SDS011;23457;51.966;8.230;2023-02-22T00:16:53;123.40;;;36.97;;
37609;SDS011;23457;51.966;8.230;2023-02-22T00:19:25;128.27;;;38.47;;
37609;SDS011;23457;51.966;8.230;2023-02-22T00:21:53;115.55;;;37.75;;
37609;SDS011;23457;51.966;8.230;2023-02-22T00:24:20;120.20;;;35.08;;
37609;SDS011;23457;51.966;8.230;2023-02-22T00:26:52;110.30;;;35.10;;
37609;SDS011;23457;51.966;8.230;2023-02-22T00:29:23;116.30;;;35.20;;
37609;SDS011;23457;51.966;8.230;2023-02-22T00:31:51;115.68;;;34.55;;
37609;SDS011;23457;51.966;8.230;2023-02-22T00:34:18;115.22;;;34.53;;
37609;SDS011;23457;51.966;8.230;2023-02-22T00:36:48;108.15;;;33.92;;
37609;SDS011;23457;51.966;8.230;2023-02-22T00:39:15;113.30;;;36.83;;
37609;SDS011;23457;51.966;8.230;2023-02-22T00:41:41;108.10;;;34.28;;
37609;SDS011;23457;51.966;8.230;2023-02-22T00:44:08;113.78;;;35.40;;
37609;SDS011;23457;51.966;8.230;2023-02-22T00:46:37;100.35;;;33.13;;
37609;SDS011;23457;51.966;8.230;2023-02-22T00:49:04;108.57;;;33.55;;
37609;SDS011;23457;51.966;8.230;2023-02-22T00:51:31;93.53;;;30.88;;
37609;SDS011;23457;51.966;8.230;2023-02-22T00:53:59;101.10;;;32.65;;
37609;SDS011;23457;51.966;8.230;2023-02-22T00:56:25;101.25;;;32.08;;
37609;SDS011;23457;51.966;8.230;2023-02-22T00:58:53;101.60;;;32.72;;
37609;SDS011;23457;51.966;8.230;2023-02-22T01:01:19;97.00;;;32.85;;
37609;SDS011;23457;51.966;8.230;2023-02-22T01:03:47;98.07;;;31.88;;
37609;SDS011;23457;51.966;8.230;2023-02-22T01:06:14;120.57;;;34.53;;
37609;SDS011;23457;51.966;8.230;2023-02-22T01:08:45;107.53;;;34.53;;
37609;SDS011;23457;51.966;8.230;2023-02-22T01:11:14;96.53;;;33.08;;
37609;SDS011;23457;51.966;8.230;2023-02-22T01:13:42;113.88;;;35.58;;
37609;SDS011;23457;51.966;8.230;2023-02-22T01:18:39;103.18;;;33.88;;
37609;SDS011;23457;51.966;8.230;2023-02-22T01:21:05;97.32;;;33.00;;
37609;SDS011;23457;51.966;8.230;2023-02-22T01:23:33;95.50;;;33.00;;
37609;SDS011;23457;51.966;8.230;2023-02-22T01:26:00;92.38;;;31.65;;
37609;SDS011;23457;51.966;8.230;2023-02-22T01:28:29;95.72;;;33.63;;
37609;SDS011;23457;51.966;8.230;2023-02-22T01:30:57;84.30;;;29.30;;
37609;SDS011;23457;51.966;8.230;2023-02-22T01:33:23;86.75;;;30.55;;
37609;SDS011;23457;51.966;8.230;2023-02-22T01:35:51;84.90;;;29.50;;
37609;SDS011;23457;51.966;8.230;2023-02-22T01:38:17;75.00;;;27.20;;
37609;SDS011;23457;51.966;8.230;2023-02-22T01:40:48;75.30;;;26.98;;
37609;SDS011;23457;51.966;8.230;2023-02-22T01:45:54;77.30;;;25.63;;
37609;SDS011;23457;51.966;8.230;2023-02-22T01:48:25;84.20;;;27.85;;
37609;SDS011;23457;51.966;8.230;2023-02-22T01:53:30;72.70;;;25.45;;
37609;SDS011;23457;51.966;8.230;2023-02-22T01:56:01;68.55;;;25.80;;
37609;SDS011;23457;51.966;8.230;2023-02-22T01:58:29;73.97;;;25.80;;
37609;SDS011;23457;51.966;8.230;2023-02-22T02:00:59;73.63;;;24.80;;
37609;SDS011;23457;51.966;8.230;2023-02-22T02:03:31;67.05;;;23.13;;
37609;SDS011;23457;51.966;8.230;2023-02-22T02:06:02;69.03;;;22.98;;
37609;SDS011;23457;51.966;8.230;2023-02-22T02:08:35;66.05;;;23.55;;
37609;SDS011;23457;51.966;8.230;2023-02-22T02:11:08;68.45;;;23.10;;
37609;SDS011;23457;51.966;8.230;2023-02-22T02:13:35;72.97;;;23.20;;
37609;SDS011;23457;51.966;8.230;2023-02-22T02:16:02;65.05;;;23.10;;
37609;SDS011;23457;51.966;8.230;2023-02-22T02:18:29;69.93;;;23.85;;
37609;SDS011;23457;51.966;8.230;2023-02-22T02:24:02;84.18;;;24.25;;
37609;SDS011;23457;51.966;8.230;2023-02-22T02:29:42;68.10;;;22.77;;
37609;SDS011;23457;51.966;8.230;2023-02-22T02:40:46;58.13;;;20.17;;
37609;SDS011;23457;51.966;8.230;2023-02-22T02:43:31;53.70;;;19.90;;
37609;SDS011;23457;51.966;8.230;2023-02-22T02:46:05;54.47;;;19.17;;
37609;SDS011;23457;51.966;8.230;2023-02-22T02:48:34;56.63;;;20.52;;
37609;SDS011;23457;51.966;8.230;2023-02-22T02:51:03;62.13;;;19.52;;
37609;SDS011;23457;51.966;8.230;2023-02-22T02:53:36;55.40;;;19.80;;
37609;SDS011;23457;51.966;8.230;2023-02-22T02:56:05;53.55;;;18.83;;
37609;SDS011;23457;51.966;8.230;2023-02-22T02:58:40;46.00;;;17.77;;
37609;SDS011;23457;51.966;8.230;2023-02-22T03:01:26;47.63;;;17.67;;
37609;SDS011;23457;51.966;8.230;2023-02-22T03:04:20;47.10;;;16.60;;
37609;SDS011;23457;51.966;8.230;2023-02-22T03:15:41;51.30;;;18.65;;
37609;SDS011;23457;51.966;8.230;2023-02-22T03:23:40;46.33;;;16.52;;
37609;SDS011;23457;51.966;8.230;2023-02-22T03:26:18;43.03;;;16.38;;
37609;SDS011;23457;51.966;8.230;2023-02-22T03:28:53;47.25;;;17.60;;
37609;SDS011;23457;51.966;8.230;2023-02-22T03:31:26;51.60;;;18.77;;
37609;SDS011;23457;51.966;8.230;2023-02-22T03:33:58;50.72;;;18.23;;
37609;SDS011;23457;51.966;8.230;2023-02-22T03:36:32;57.72;;;19.85;;
37609;SDS011;23457;51.966;8.230;2023-02-22T03:39:05;58.63;;;19.60;;
37609;SDS011;23457;51.966;8.230;2023-02-22T03:41:40;55.78;;;19.02;;
37609;SDS011;23457;51.966;8.230;2023-02-22T03:44:11;59.85;;;19.73;;
37609;SDS011;23457;51.966;8.230;2023-02-22T03:46:41;59.30;;;19.90;;
37609;SDS011;23457;51.966;8.230;2023-02-22T03:49:24;68.72;;;23.85;;
37609;SDS011;23457;51.966;8.230;2023-02-22T03:51:58;66.03;;;23.27;;
37609;SDS011;23457;51.966;8.230;2023-02-22T03:54:28;76.55;;;24.52;;
37609;SDS011;23457;51.966;8.230;2023-02-22T03:56:56;125.10;;;25.92;;
37609;SDS011;23457;51.966;8.230;2023-02-22T03:59:28;66.13;;;23.17;;
37609;SDS011;23457;51.966;8.230;2023-02-22T04:01:56;72.47;;;23.73;;
37609;SDS011;23457;51.966;8.230;2023-02-22T04:04:24;184.55;;;25.95;;
37609;SDS011;23457;51.966;8.230;2023-02-22T04:06:51;282.58;;;26.38;;
37609;SDS011;23457;51.966;8.230;2023-02-22T04:09:18;200.82;;;24.10;;
37609;SDS011;23457;51.966;8.230;2023-02-22T04:11:46;78.85;;;23.02;;
37609;SDS011;23457;51.966;8.230;2023-02-22T04:14:13;108.35;;;23.23;;
37609;SDS011;23457;51.966;8.230;2023-02-22T04:16:41;61.90;;;20.13;;
37609;SDS011;23457;51.966;8.230;2023-02-22T04:19:08;150.10;;;24.35;;
37609;SDS011;23457;51.966;8.230;2023-02-22T04:21:37;98.30;;;23.10;;
37609;SDS011;23457;51.966;8.230;2023-02-22T04:24:05;233.20;;;25.58;;
37609;SDS011;23457;51.966;8.230;2023-02-22T04:26:32;137.32;;;23.20;;
37609;SDS011;23457;51.966;8.230;2023-02-22T04:29:01;84.05;;;20.92;;
37609;SDS011;23457;51.966;8.230;2023-02-22T04:31:35;79.00;;;20.92;;
37609;SDS011;23457;51.966;8.230;2023-02-22T04:34:02;79.07;;;20.60;;
37609;SDS011;23457;51.966;8.230;2023-02-22T04:36:33;78.25;;;22.00;;
37609;SDS011;23457;51.966;8.230;2023-02-22T04:38:59;85.05;;;23.80;;
37609;SDS011;23457;51.966;8.230;2023-02-22T04:41:28;78.78;;;23.85;;
37609;SDS011;23457;51.966;8.230;2023-02-22T04:43:56;87.28;;;24.70;;
37609;SDS011;23457;51.966;8.230;2023-02-22T04:46:24;68.88;;;24.17;;
37609;SDS011;23457;51.966;8.230;2023-02-22T04:48:52;83.45;;;24.50;;
37609;SDS011;23457;51.966;8.230;2023-02-22T04:51:22;112.00;;;26.80;;
37609;SDS011;23457;51.966;8.230;2023-02-22T04:53:59;91.03;;;24.02;;
37609;SDS011;23457;51.966;8.230;2023-02-22T04:56:26;75.45;;;22.65;;
37609;SDS011;23457;51.966;8.230;2023-02-22T04:58:53;119.20;;;21.17;;
37609;SDS011;23457;51.966;8.230;2023-02-22T05:01:20;56.50;;;19.30;;
37609;SDS011;23457;51.966;8.230;2023-02-22T05:03:47;70.22;;;18.35;;
37609;SDS011;23457;51.966;8.230;2023-02-22T05:06:14;79.80;;;17.60;;
37609;SDS011;23457;51.966;8.230;2023-02-22T05:08:43;94.90;;;17.25;;
37609;SDS011;23457;51.966;8.230;2023-02-22T05:11:10;59.33;;;17.60;;
37609;SDS011;23457;51.966;8.230;2023-02-22T05:13:36;83.30;;;18.02;;
37609;SDS011;23457;51.966;8.230;2023-02-22T05:16:03;48.47;;;17.42;;
37609;SDS011;23457;51.966;8.230;2023-02-22T05:18:30;38.42;;;16.83;;
37609;SDS011;23457;51.966;8.230;2023-02-22T05:20:57;46.05;;;18.33;;
37609;SDS011;23457;51.966;8.230;2023-02-22T05:23:24;41.05;;;17.65;;
37609;SDS011;23457;51.966;8.230;2023-02-22T05:25:50;61.05;;;18.35;;
37609;SDS011;23457;51.966;8.230;2023-02-22T05:28:17;36.15;;;16.65;;
37609;SDS011;23457;51.966;8.230;2023-02-22T05:30:44;43.35;;;17.17;;
37609;SDS011;23457;51.966;8.230;2023-02-22T05:33:11;39.47;;;17.48;;
37609;SDS011;23457;51.966;8.230;2023-02-22T05:35:38;60.90;;;17.77;;
37609;SDS011;23457;51.966;8.230;2023-02-22T05:38:05;140.45;;;19.27;;
37609;SDS011;23457;51.966;8.230;2023-02-22T05:40:32;76.15;;;18.27;;
37609;SDS011;23457;51.966;8.230;2023-02-22T05:42:59;99.57;;;18.88;;
37609;SDS011;23457;51.966;8.230;2023-02-22T05:45:27;113.22;;;19.60;;
37609;SDS011;23457;51.966;8.230;2023-02-22T05:47:54;49.55;;;18.45;;
37609;SDS011;23457;51.966;8.230;2023-02-22T05:50:22;106.30;;;20.05;;
37609;SDS011;23457;51.966;8.230;2023-02-22T05:52:50;115.60;;;19.48;;
37609;SDS011;23457;51.966;8.230;2023-02-22T05:55:18;37.53;;;17.75;;
37609;SDS011;23457;51.966;8.230;2023-02-22T05:57:46;36.83;;;16.83;;
37609;SDS011;23457;51.966;8.230;2023-02-22T06:00:16;55.55;;;18.38;;
37609;SDS011;23457;51.966;8.230;2023-02-22T06:02:45;35.30;;;17.48;;
37609;SDS011;23457;51.966;8.230;2023-02-22T06:05:12;39.90;;;19.17;;
37609;SDS011;23457;51.966;8.230;2023-02-22T06:07:39;42.13;;;19.75;;
37609;SDS011;23457;51.966;8.230;2023-02-22T06:10:06;38.85;;;18.65;;
37609;SDS011;23457;51.966;8.230;2023-02-22T06:12:32;38.13;;;16.30;;
37609;SDS011;23457;51.966;8.230;2023-02-22T06:14:59;34.95;;;15.60;;
37609;SDS011;23457;51.966;8.230;2023-02-22T06:17:26;51.08;;;16.83;;
37609;SDS011;23457;51.966;8.230;2023-02-22T06:19:52;35.22;;;15.27;;
37609;SDS011;23457;51.966;8.230;2023-02-22T06:22:19;52.40;;;16.60;;
37609;SDS011;23457;51.966;8.230;2023-02-22T06:24:45;56.72;;;16.33;;
37609;SDS011;23457;51.966;8.230;2023-02-22T06:27:12;96.65;;;17.30;;
37609;SDS011;23457;51.966;8.230;2023-02-22T06:29:39;47.95;;;16.08;;
37609;SDS011;23457;51.966;8.230;2023-02-22T06:32:10;45.60;;;16.23;;
37609;SDS011;23457;51.966;8.230;2023-02-22T06:34:37;52.45;;;16.67;;
37609;SDS011;23457;51.966;8.230;2023-02-22T06:37:04;91.53;;;20.35;;
37609;SDS011;23457;51.966;8.230;2023-02-22T06:39:30;45.35;;;19.50;;
37609;SDS011;23457;51.966;8.230;2023-02-22T06:41:58;46.72;;;19.35;;
37609;SDS011;23457;51.966;8.230;2023-02-22T06:44:25;63.80;;;20.90;;
37609;SDS011;23457;51.966;8.230;2023-02-22T06:46:51;45.13;;;19.92;;
37609;SDS011;23457;51.966;8.230;2023-02-22T06:49:18;44.50;;;19.15;;
37609;SDS011;23457;51.966;8.230;2023-02-22T06:51:45;40.17;;;17.10;;
37609;SDS011;23457;51.966;8.230;2023-02-22T06:54:13;46.60;;;17.15;;
37609;SDS011;23457;51.966;8.230;2023-02-22T06:56:40;44.47;;;17.73;;
37609;SDS011;23457;51.966;8.230;2023-02-22T06:59:06;37.63;;;16.85;;
37609;SDS011;23457;51.966;8.230;2023-02-22T07:01:33;50.25;;;17.27;;
37609;SDS011;23457;51.966;8.230;2023-02-22T07:04:00;43.03;;;16.92;;
37609;SDS011;23457;51.966;8.230;2023-02-22T07:06:27;36.80;;;16.27;;
37609;SDS011;23457;51.966;8.230;2023-02-22T07:08:54;33.78;;;16.15;;
37609;SDS011;23457;51.966;8.230;2023-02-22T07:11:21;48.53;;;17.08;;
37609;SDS011;23457;51.966;8.230;2023-02-22T07:13:47;48.03;;;22.20;;
37609;SDS011;23457;51.966;8.230;2023-02-22T07:16:14;58.10;;;18.60;;
37609;SDS011;23457;51.966;8.230;2023-02-22T07:18:41;55.17;;;18.50;;
37609;SDS011;23457;51.966;8.230;2023-02-22T07:21:07;62.60;;;20.00;;
37609;SDS011;23457;51.966;8.230;2023-02-22T07:23:34;67.78;;;21.92;;
37609;SDS011;23457;51.966;8.230;2023-02-22T07:26:01;72.80;;;20.55;;
37609;SDS011;23457;51.966;8.230;2023-02-22T07:28:28;61.40;;;19.45;;
37609;SDS011;23457;51.966;8.230;2023-02-22T07:30:55;57.90;;;18.35;;
37609;SDS011;23457;51.966;8.230;2023-02-22T07:33:22;58.70;;;22.30;;
37609;SDS011;23457;51.966;8.230;2023-02-22T07:35:49;54.13;;;20.98;;
37609;SDS011;23457;51.966;8.230;2023-02-22T07:38:16;64.97;;;21.50;;
37609;SDS011;23457;51.966;8.230;2023-02-22T07:40:44;64.03;;;21.48;;
37609;SDS011;23457;51.966;8.230;2023-02-22T07:43:21;68.32;;;22.33;;
37609;SDS011;23457;51.966;8.230;2023-02-22T07:45:53;59.65;;;22.92;;
37609;SDS011;23457;51.966;8.230;2023-02-22T07:48:22;65.68;;;23.38;;
37609;SDS011;23457;51.966;8.230;2023-02-22T07:50:50;59.88;;;22.90;;
37609;SDS011;23457;51.966;8.230;2023-02-22T07:53:18;57.33;;;23.88;;
37609;SDS011;23457;51.966;8.230;2023-02-22T07:55:49;72.57;;;24.33;;
37609;SDS011;23457;51.966;8.230;2023-02-22T07:58:18;70.35;;;26.48;;
37609;SDS011;23457;51.966;8.230;2023-02-22T08:00:47;72.07;;;28.83;;
37609;SDS011;23457;51.966;8.230;2023-02-22T08:03:14;80.05;;;33.67;;
37609;SDS011;23457;51.966;8.230;2023-02-22T08:05:53;104.03;;;39.42;;
37609;SDS011;23457;51.966;8.230;2023-02-22T08:08:22;96.63;;;35.63;;
37609;SDS011;23457;51.966;8.230;2023-02-22T08:10:49;93.03;;;35.08;;
37609;SDS011;23457;51.966;8.230;2023-02-22T08:13:17;90.05;;;34.80;;
37609;SDS011;23457;51.966;8.230;2023-02-22T08:15:44;101.38;;;37.63;;
37609;SDS011;23457;51.966;8.230;2023-02-22T08:18:13;144.30;;;39.53;;
37609;SDS011;23457;51.966;8.230;2023-02-22T08:20:42;93.05;;;35.75;;
37609;SDS011;23457;51.966;8.230;2023-02-22T08:23:11;124.22;;;39.45;;
37609;SDS011;23457;51.966;8.230;2023-02-22T08:25:39;106.20;;;37.40;;
37609;SDS011;23457;51.966;8.230;2023-02-22T08:28:07;101.47;;;35.13;;
37609;SDS011;23457;51.966;8.230;2023-02-22T08:30:36;95.82;;;35.17;;
37609;SDS011;23457;51.966;8.230;2023-02-22T08:33:05;87.13;;;33.72;;
37609;SDS011;23457;51.966;8.230;2023-02-22T08:35:32;96.53;;;35.92;;
37609;SDS011;23457;51.966;8.230;2023-02-22T08:38:00;82.88;;;33.10;;
37609;SDS011;23457;51.966;8.230;2023-02-22T08:40:29;83.90;;;32.60;;
37609;SDS011;23457;51.966;8.230;2023-02-22T08:42:58;82.22;;;32.55;;
37609;SDS011;23457;51.966;8.230;2023-02-22T08:45:25;85.43;;;32.90;;
37609;SDS011;23457;51.966;8.230;2023-02-22T08:47:51;88.80;;;33.83;;
37609;SDS011;23457;51.966;8.230;2023-02-22T08:50:22;87.55;;;33.35;;
37609;SDS011;23457;51.966;8.230;2023-02-22T08:52:51;81.40;;;32.45;;
37609;SDS011;23457;51.966;8.230;2023-02-22T08:55:23;92.93;;;35.75;;
37609;SDS011;23457;51.966;8.230;2023-02-22T08:57:51;85.03;;;32.58;;
37609;SDS011;23457;51.966;8.230;2023-02-22T09:00:19;91.13;;;32.15;;
37609;SDS011;23457;51.966;8.230;2023-02-22T09:02:50;81.90;;;33.10;;
37609;SDS011;23457;51.966;8.230;2023-02-22T09:05:18;85.80;;;34.75;;
37609;SDS011;23457;51.966;8.230;2023-02-22T09:07:45;79.60;;;32.97;;
37609;SDS011;23457;51.966;8.230;2023-02-22T09:10:20;68.82;;;30.55;;
37609;SDS011;23457;51.966;8.230;2023-02-22T09:12:52;76.35;;;32.10;;
37609;SDS011;23457;51.966;8.230;2023-02-22T09:15:23;78.32;;;32.72;;
37609;SDS011;23457;51.966;8.230;2023-02-22T09:17:51;72.00;;;31.35;;
37609;SDS011;23457;51.966;8.230;2023-02-22T09:20:19;74.57;;;31.80;;
37609;SDS011;23457;51.966;8.230;2023-02-22T09:22:48;81.03;;;33.00;;
37609;SDS011;23457;51.966;8.230;2023-02-22T09:25:15;80.30;;;33.35;;
37609;SDS011;23457;51.966;8.230;2023-02-22T09:27:48;75.60;;;32.13;;
37609;SDS011;23457;51.966;8.230;2023-02-22T09:30:27;73.80;;;32.58;;
37609;SDS011;23457;51.966;8.230;2023-02-22T09:32:58;74.97;;;32.25;;
37609;SDS011;23457;51.966;8.230;2023-02-22T09:35:27;73.43;;;31.80;;
37609;SDS011;23457;51.966;8.230;2023-02-22T09:37:58;69.18;;;31.02;;
37609;SDS011;23457;51.966;8.230;2023-02-22T09:40:26;66.28;;;31.80;;
37609;SDS011;23457;51.966;8.230;2023-02-22T09:43:01;69.78;;;32.53;;
37609;SDS011;23457;51.966;8.230;2023-02-22T09:45:44;64.35;;;30.38;;
37609;SDS011;23457;51.966;8.230;2023-02-22T09:48:35;70.53;;;31.67;;
37609;SDS011;23457;51.966;8.230;2023-02-22T09:51:16;68.65;;;30.52;;
37609;SDS011;23457;51.966;8.230;2023-02-22T09:53:48;64.15;;;30.88;;
37609;SDS011;23457;51.966;8.230;2023-02-22T09:56:19;65.47;;;32.03;;
37609;SDS011;23457;51.966;8.230;2023-02-22T09:58:47;65.28;;;31.38;;
37609;SDS011;23457;51.966;8.230;2023-02-22T10:01:30;61.28;;;30.48;;
37609;SDS011;23457;51.966;8.230;2023-02-22T10:04:09;58.60;;;29.30;;
37609;SDS011;23457;51.966;8.230;2023-02-22T10:09:58;52.20;;;26.27;;
37609;SDS011;23457;51.966;8.230;2023-02-22T10:12:41;52.88;;;25.75;;
37609;SDS011;23457;51.966;8.230;2023-02-22T10:27:24;46.80;;;24.13;;
37609;SDS011;23457;51.966;8.230;2023-02-22T10:30:56;47.22;;;25.52;;
37609;SDS011;23457;51.966;8.230;2023-02-22T10:36:03;40.95;;;23.13;;
37609;SDS011;23457;51.966;8.230;2023-02-22T10:38:32;44.75;;;22.77;;
37609;SDS011;23457;51.966;8.230;2023-02-22T10:43:41;41.78;;;22.08;;
37609;SDS011;23457;51.966;8.230;2023-02-22T10:46:13;40.83;;;21.27;;
37609;SDS011;23457;51.966;8.230;2023-02-22T10:48:46;32.90;;;20.08;;
37609;SDS011;23457;51.966;8.230;2023-02-22T10:51:16;36.33;;;20.73;;
37609;SDS011;23457;51.966;8.230;2023-02-22T10:53:43;36.00;;;18.73;;
37609;SDS011;23457;51.966;8.230;2023-02-22T10:56:22;34.28;;;19.70;;
37609;SDS011;23457;51.966;8.230;2023-02-22T11:01:24;31.35;;;19.05;;
37609;SDS011;23457;51.966;8.230;2023-02-22T11:06:31;31.85;;;18.23;;
37609;SDS011;23457;51.966;8.230;2023-02-22T11:09:03;32.92;;;18.88;;
37609;SDS011;23457;51.966;8.230;2023-02-22T11:11:35;31.52;;;18.58;;
37609;SDS011;23457;51.966;8.230;2023-02-22T11:14:03;31.02;;;18.55;;
37609;SDS011;23457;51.966;8.230;2023-02-22T11:16:33;29.67;;;17.83;;
37609;SDS011;23457;51.966;8.230;2023-02-22T11:19:23;30.35;;;17.33;;
37609;SDS011;23457;51.966;8.230;2023-02-22T11:24:43;30.48;;;16.10;;
37609;SDS011;23457;51.966;8.230;2023-02-22T11:27:58;31.45;;;16.42;;
37609;SDS011;23457;51.966;8.230;2023-02-22T11:32:57;28.15;;;16.45;;
37609;SDS011;23457;51.966;8.230;2023-02-22T11:43:51;23.63;;;14.40;;
37609;SDS011;23457;51.966;8.230;2023-02-22T11:46:24;23.25;;;14.30;;
37609;SDS011;23457;51.966;8.230;2023-02-22T11:48:57;21.88;;;13.57;;
37609;SDS011;23457;51.966;8.230;2023-02-22T11:54:36;21.15;;;11.77;;
37609;SDS011;23457;51.966;8.230;2023-02-22T12:21:36;17.75;;;11.30;;
37609;SDS011;23457;51.966;8.230;2023-02-22T12:24:18;19.92;;;11.98;;
37609;SDS011;23457;51.966;8.230;2023-02-22T12:27:08;19.40;;;11.98;;
37609;SDS011;23457;51.966;8.230;2023-02-22T12:29:42;16.33;;;10.02;;
37609;SDS011;23457;51.966;8.230;2023-02-22T12:35:23;16.92;;;9.98;;
37609;SDS011;23457;51.966;8.230;2023-02-22T12:41:19;17.60;;;10.15;;
37609;SDS011;23457;51.966;8.230;2023-02-22T12:48:24;15.48;;;8.88;;
37609;SDS011;23457;51.966;8.230;2023-02-22T12:51:02;15.63;;;10.98;;
37609;SDS011;23457;51.966;8.230;2023-02-22T12:53:42;16.52;;;10.60;;
37609;SDS011;23457;51.966;8.230;2023-02-22T12:56:24;17.13;;;10.23;;
37609;SDS011;23457;51.966;8.230;2023-02-22T12:58:59;18.27;;;11.07;;
37609;SDS011;23457;51.966;8.230;2023-02-22T13:01:33;16.63;;;10.63;;
37609;SDS011;23457;51.966;8.230;2023-02-22T13:04:04;15.82;;;10.27;;
37609;SDS011;23457;51.966;8.230;2023-02-22T13:15:20;15.35;;;9.93;;
37609;SDS011;23457;51.966;8.230;2023-02-22T13:18:00;13.18;;;9.43;;
37609;SDS011;23457;51.966;8.230;2023-02-22T13:20:44;17.95;;;9.15;;
37609;SDS011;23457;51.966;8.230;2023-02-22T13:26:07;15.15;;;9.73;;
37609;SDS011;23457;51.966;8.230;2023-02-22T13:28:43;15.63;;;9.18;;
37609;SDS011;23457;51.966;8.230;2023-02-22T13:32:01;22.25;;;11.73;;
37609;SDS011;23457;51.966;8.230;2023-02-22T13:50:49;15.57;;;9.70;;
37609;SDS011;23457;51.966;8.230;2023-02-22T13:53:36;13.73;;;8.60;;
37609;SDS011;23457;51.966;8.230;2023-02-22T13:56:13;15.75;;;10.82;;
37609;SDS011;23457;51.966;8.230;2023-02-22T13:58:51;17.17;;;9.63;;
37609;SDS011;23457;51.966;8.230;2023-02-22T14:01:38;14.93;;;8.95;;
37609;SDS011;23457;51.966;8.230;2023-02-22T14:06:46;13.85;;;7.90;;
37609;SDS011;23457;51.966;8.230;2023-02-22T14:21:23;18.75;;;8.05;;
37609;SDS011;23457;51.966;8.230;2023-02-22T14:26:13;9.82;;;6.22;;
37609;SDS011;23457;51.966;8.230;2023-02-22T14:28:45;13.85;;;6.68;;
37609;SDS011;23457;51.966;8.230;2023-02-22T14:31:16;16.02;;;8.73;;
37609;SDS011;23457;51.966;8.230;2023-02-22T14:34:01;14.10;;;8.57;;
37609;SDS011;23457;51.966;8.230;2023-02-22T14:36:54;13.85;;;8.15;;
37609;SDS011;23457;51.966;8.230;2023-02-22T14:39:29;10.15;;;6.90;;
37609;SDS011;23457;51.966;8.230;2023-02-22T14:42:32;13.38;;;8.88;;
37609;SDS011;23457;51.966;8.230;2023-02-22T14:45:21;13.35;;;7.28;;
37609;SDS011;23457;51.966;8.230;2023-02-22T14:50:51;13.05;;;7.72;;
37609;SDS011;23457;51.966;8.230;2023-02-22T14:53:22;12.35;;;7.90;;
37609;SDS011;23457;51.966;8.230;2023-02-22T14:55:56;14.27;;;9.23;;
37609;SDS011;23457;51.966;8.230;2023-02-22T15:01:14;20.33;;;11.48;;
37609;SDS011;23457;51.966;8.230;2023-02-22T15:03:49;22.67;;;12.13;;
37609;SDS011;23457;51.966;8.230;2023-02-22T15:06:32;24.50;;;14.02;;
37609;SDS011;23457;51.966;8.230;2023-02-22T15:09:05;17.60;;;10.88;;
37609;SDS011;23457;51.966;8.230;2023-02-22T15:11:37;21.27;;;11.40;;
37609;SDS011;23457;51.966;8.230;2023-02-22T15:17:20;18.00;;;11.05;;
37609;SDS011;23457;51.966;8.230;2023-02-22T15:19:50;17.90;;;12.27;;
37609;SDS011;23457;51.966;8.230;2023-02-22T15:22:18;19.77;;;12.95;;
37609;SDS011;23457;51.966;8.230;2023-02-22T15:25:04;19.90;;;12.32;;
37609;SDS011;23457;51.966;8.230;2023-02-22T15:27:33;16.17;;;11.48;;
37609;SDS011;23457;51.966;8.230;2023-02-22T15:32:38;21.38;;;12.48;;
37609;SDS011;23457;51.966;8.230;2023-02-22T15:37:59;17.10;;;11.40;;
37609;SDS011;23457;51.966;8.230;2023-02-22T15:40:38;17.90;;;12.35;;
37609;SDS011;23457;51.966;8.230;2023-02-22T15:43:29;17.42;;;12.55;;
37609;SDS011;23457;51.966;8.230;2023-02-22T15:45:58;17.27;;;11.63;;
37609;SDS011;23457;51.966;8.230;2023-02-22T15:48:26;18.20;;;11.80;;
37609;SDS011;23457;51.966;8.230;2023-02-22T15:51:06;18.23;;;11.98;;
37609;SDS011;23457;51.966;8.230;2023-02-22T15:53:43;16.52;;;10.85;;
37609;SDS011;23457;51.966;8.230;2023-02-22T15:56:33;19.38;;;11.30;;
37609;SDS011;23457;51.966;8.230;2023-02-22T16:01:45;21.88;;;11.38;;
37609;SDS011;23457;51.966;8.230;2023-02-22T16:04:17;16.85;;;11.95;;
37609;SDS011;23457;51.966;8.230;2023-02-22T16:06:47;20.83;;;12.00;;
37609;SDS011;23457;51.966;8.230;2023-02-22T16:09:18;20.17;;;12.32;;
37609;SDS011;23457;51.966;8.230;2023-02-22T16:22:44;18.10;;;11.63;;
37609;SDS011;23457;51.966;8.230;2023-02-22T16:27:45;18.88;;;12.35;;
37609;SDS011;23457;51.966;8.230;2023-02-22T16:30:38;16.73;;;11.88;;
37609;SDS011;23457;51.966;8.230;2023-02-22T16:33:06;18.80;;;11.95;;
37609;SDS011;23457;51.966;8.230;2023-02-22T16:35:38;20.05;;;12.60;;
37609;SDS011;23457;51.966;8.230;2023-02-22T16:38:06;18.05;;;11.82;;
37609;SDS011;23457;51.966;8.230;2023-02-22T16:40:52;20.38;;;13.23;;
37609;SDS011;23457;51.966;8.230;2023-02-22T16:43:21;22.48;;;12.13;;
37609;SDS011;23457;51.966;8.230;2023-02-22T16:48:19;20.75;;;13.48;;
37609;SDS011;23457;51.966;8.230;2023-02-22T16:50:49;20.73;;;12.55;;
37609;SDS011;23457;51.966;8.230;2023-02-22T16:53:23;17.35;;;11.90;;
37609;SDS011;23457;51.966;8.230;2023-02-22T16:55:52;18.90;;;12.10;;
37609;SDS011;23457;51.966;8.230;2023-02-22T16:58:23;18.02;;;12.23;;
37609;SDS011;23457;51.966;8.230;2023-02-22T17:00:55;21.58;;;14.02;;
37609;SDS011;23457;51.966;8.230;2023-02-22T17:03:23;20.13;;;14.27;;
37609;SDS011;23457;51.966;8.230;2023-02-22T17:05:52;20.60;;;13.88;;
37609;SDS011;23457;51.966;8.230;2023-02-22T17:08:18;23.48;;;14.73;;
37609;SDS011;23457;51.966;8.230;2023-02-22T17:10:45;24.20;;;15.60;;
37609;SDS011;23457;51.966;8.230;2023-02-22T17:13:12;24.45;;;16.30;;
37609;SDS011;23457;51.966;8.230;2023-02-22T17:15:49;28.45;;;16.15;;
37609;SDS011;23457;51.966;8.230;2023-02-22T17:18:17;24.65;;;15.75;;
37609;SDS011;23457;51.966;8.230;2023-02-22T17:20:51;25.58;;;16.27;;
37609;SDS011;23457;51.966;8.230;2023-02-22T17:23:18;23.75;;;15.40;;
37609;SDS011;23457;51.966;8.230;2023-02-22T17:25:56;25.25;;;15.13;;
37609;SDS011;23457;51.966;8.230;2023-02-22T17:28:25;22.58;;;15.45;;
37609;SDS011;23457;51.966;8.230;2023-02-22T17:30:53;23.77;;;15.38;;
37609;SDS011;23457;51.966;8.230;2023-02-22T17:33:26;25.65;;;16.08;;
37609;SDS011;23457;51.966;8.230;2023-02-22T17:35:56;30.67;;;16.67;;
37609;SDS011;23457;51.966;8.230;2023-02-22T17:38:24;28.08;;;16.63;;
37609;SDS011;23457;51.966;8.230;2023-02-22T17:40:54;28.92;;;16.70;;
37609;SDS011;23457;51.966;8.230;2023-02-22T17:43:22;25.38;;;14.93;;
37609;SDS011;23457;51.966;8.230;2023-02-22T17:45:50;26.33;;;15.70;;
37609;SDS011;23457;51.966;8.230;2023-02-22T17:48:17;31.73;;;16.15;;
37609;SDS011;23457;51.966;8.230;2023-02-22T17:50:44;27.83;;;17.30;;
37609;SDS011;23457;51.966;8.230;2023-02-22T17:53:12;28.80;;;17.55;;
37609;SDS011;23457;51.966;8.230;2023-02-22T17:55:39;26.55;;;16.60;;
37609;SDS011;23457;51.966;8.230;2023-02-22T17:58:09;26.60;;;16.60;;